Time;durP1;ratioP1;P1;durP2;ratioP2;P2;SDS_P1;SDS_P2;PMS_P1;PMS_P2;Temp;Humidity;BMP_temperature;BMP_pressure;BME280_temperature;BME280_humidity;BME280_pressure;Samples;Min_cycle;Max_cycle;Signal;HPM_P1;HPM_P2
2024/01/12 00:00:23;;;;;;;59.85;29.70;;;-5.60;99.90;;;;;;4969692;28;20208;-69
2024/01/12 00:02:51;;;;;;;51.55;29.05;;;-5.60;99.90;;;;;;4971237;28;20219;-69
2024/01/12 00:05:19;;;;;;;57.00;29.02;;;-5.60;99.90;;;;;;4966606;28;20318;-69
2024/01/12 00:07:47;;;;;;;56.40;28.42;;;-5.70;99.90;;;;;;4970709;28;20246;-68
2024/01/12 00:10:17;;;;;;;59.47;30.63;;;-5.60;99.90;;;;;;4970989;28;20306;-69
2024/01/12 00:12:45;;;;;;;58.63;30.48;;;-5.60;99.90;;;;;;4970495;28;20275;-69
2024/01/12 00:15:13;;;;;;;53.90;28.05;;;-5.60;99.90;;;;;;4970924;28;20759;-69
2024/01/12 00:17:41;;;;;;;57.65;27.70;;;-5.60;99.90;;;;;;4970570;28;20246;-69
2024/01/12 00:20:10;;;;;;;53.58;29.25;;;-5.60;99.90;;;;;;4966691;28;20344;-68
2024/01/12 00:22:38;;;;;;;63.17;30.35;;;-5.60;99.90;;;;;;4962490;28;20211;-70
2024/01/12 00:25:07;;;;;;;56.50;29.65;;;-5.60;99.90;;;;;;4970085;28;20275;-69
2024/01/12 00:27:36;;;;;;;58.63;28.70;;;-5.70;99.90;;;;;;4957307;28;20214;-70
2024/01/12 00:30:06;;;;;;;55.58;30.05;;;-5.70;99.90;;;;;;4963416;28;20271;-70
2024/01/12 00:32:37;;;;;;;58.35;29.40;;;-5.70;99.90;;;;;;4968789;28;20337;-69
2024/01/12 00:35:06;;;;;;;49.97;27.35;;;-5.80;99.90;;;;;;4964228;28;20669;-70
2024/01/12 00:37:35;;;;;;;58.50;31.20;;;-5.80;99.90;;;;;;4968525;28;20283;-69
2024/01/12 00:40:03;;;;;;;61.83;28.88;;;-5.90;99.90;;;;;;4972439;28;20240;-69
2024/01/12 00:42:31;;;;;;;56.63;30.55;;;-5.80;99.90;;;;;;4964025;28;20615;-69
2024/01/12 00:45:00;;;;;;;58.00;28.35;;;-5.80;99.90;;;;;;4975499;28;20643;-69
2024/01/12 00:47:28;;;;;;;56.92;32.03;;;-5.80;99.90;;;;;;4962604;28;20950;-70
2024/01/12 00:49:57;;;;;;;48.63;26.33;;;-5.80;99.90;;;;;;4966076;28;20283;-69
2024/01/12 00:52:25;;;;;;;58.10;28.10;;;-5.90;99.90;;;;;;4969727;28;20235;-70
2024/01/12 00:54:52;;;;;;;48.85;28.08;;;-5.80;99.90;;;;;;4973484;28;20242;-68
2024/01/12 00:57:20;;;;;;;53.55;28.40;;;-5.80;99.90;;;;;;4966671;28;20204;-69
2024/01/12 00:59:48;;;;;;;51.42;27.08;;;-5.80;99.90;;;;;;4968456;28;20209;-69
2024/01/12 01:02:18;;;;;;;54.65;28.05;;;-5.80;99.90;;;;;;4968956;28;20195;-69
2024/01/12 01:04:46;;;;;;;56.92;28.50;;;-5.90;99.90;;;;;;4967135;28;20224;-70
2024/01/12 01:07:14;;;;;;;47.10;27.70;;;-5.90;99.90;;;;;;4969694;28;20219;-70
2024/01/12 01:09:42;;;;;;;52.35;27.88;;;-6.00;99.90;;;;;;4969622;28;20208;-67
2024/01/12 01:12:10;;;;;;;50.25;26.90;;;-5.90;99.90;;;;;;4967832;28;20235;-69
2024/01/12 01:14:38;;;;;;;61.55;30.98;;;-6.00;99.90;;;;;;4968850;28;20219;-69
2024/01/12 01:17:06;;;;;;;58.67;31.50;;;-6.00;99.90;;;;;;4969691;28;20311;-69
2024/01/12 01:19:35;;;;;;;58.35;29.08;;;-6.10;99.90;;;;;;4968640;28;20212;-68
2024/01/12 01:22:04;;;;;;;56.30;30.50;;;-6.10;99.90;;;;;;4965807;28;20709;-69
2024/01/12 01:24:32;;;;;;;52.33;30.42;;;-6.00;99.90;;;;;;4968448;28;20231;-69
2024/01/12 01:26:59;;;;;;;50.70;27.02;;;-6.00;99.90;;;;;;4969388;28;20266;-69
2024/01/12 01:29:28;;;;;;;61.33;30.58;;;-6.00;99.90;;;;;;4962117;28;20212;-69
2024/01/12 01:31:56;;;;;;;60.00;29.95;;;-5.90;99.90;;;;;;4964901;28;20231;-69
2024/01/12 01:34:24;;;;;;;58.70;27.50;;;-5.80;99.90;;;;;;4959307;28;20958;-69
2024/01/12 01:36:57;;;;;;;53.05;24.38;;;-5.90;99.90;;;;;;4962742;28;20297;-68
2024/01/12 01:39:25;;;;;;;50.88;28.48;;;-6.10;99.90;;;;;;4969053;28;20207;-69
2024/01/12 01:41:53;;;;;;;67.72;32.42;;;-6.20;99.90;;;;;;4970035;28;20211;-69
2024/01/12 01:44:21;;;;;;;52.30;28.10;;;-6.00;99.90;;;;;;4965289;28;20228;-69
2024/01/12 01:46:49;;;;;;;63.08;28.08;;;-5.90;99.90;;;;;;4966336;28;20267;-70
2024/01/12 01:49:17;;;;;;;57.65;27.33;;;-5.90;99.90;;;;;;4967788;28;20203;-69
2024/01/12 01:51:45;;;;;;;53.05;28.98;;;-5.90;99.90;;;;;;4960156;28;20212;-69
2024/01/12 01:54:15;;;;;;;59.78;29.38;;;-6.00;99.90;;;;;;4968921;28;20500;-69
2024/01/12 01:56:43;;;;;;;55.20;26.60;;;-6.00;99.90;;;;;;4960898;28;20256;-69
2024/01/12 01:59:12;;;;;;;54.05;26.88;;;-5.90;99.90;;;;;;4965146;28;20915;-68
2024/01/12 02:01:40;;;;;;;56.67;28.50;;;-5.90;99.90;;;;;;4968803;28;20204;-70
2024/01/12 02:04:10;;;;;;;50.65;26.75;;;-5.90;99.90;;;;;;4962748;28;20298;-69
2024/01/12 02:06:39;;;;;;;51.80;28.27;;;-6.10;99.90;;;;;;4968943;28;20204;-69
2024/01/12 02:09:08;;;;;;;57.60;27.73;;;-6.10;99.90;;;;;;4969308;28;20257;-69
2024/01/12 02:11:38;;;;;;;56.45;28.20;;;-6.20;99.90;;;;;;4968752;28;20261;-70
2024/01/12 02:14:08;;;;;;;51.42;27.33;;;-6.20;99.90;;;;;;4964326;28;20263;-68
2024/01/12 02:16:36;;;;;;;53.10;26.60;;;-6.20;99.90;;;;;;4967731;28;20211;-69
2024/01/12 02:19:04;;;;;;;49.80;27.95;;;-6.30;99.90;;;;;;4966685;28;20207;-69
2024/01/12 02:21:35;;;;;;;55.28;30.40;;;-6.30;99.90;;;;;;4960393;28;20794;-69
2024/01/12 02:24:03;;;;;;;55.55;28.33;;;-6.20;99.90;;;;;;4968728;28;20237;-69
2024/01/12 02:26:31;;;;;;;54.45;25.42;;;-6.20;99.90;;;;;;4967070;28;20223;-69
2024/01/12 02:29:00;;;;;;;54.28;28.63;;;-6.20;99.90;;;;;;4956111;28;20314;-69
2024/01/12 02:31:29;;;;;;;62.22;31.83;;;-6.30;99.90;;;;;;4981497;28;20255;-68
2024/01/12 02:33:57;;;;;;;52.13;27.20;;;-6.30;99.90;;;;;;4982384;28;20279;-70
2024/01/12 02:36:26;;;;;;;54.80;29.08;;;-6.30;99.90;;;;;;4968724;28;20204;-70
2024/01/12 02:38:56;;;;;;;52.20;27.75;;;-6.50;99.90;;;;;;4971563;28;20640;-70
2024/01/12 02:41:24;;;;;;;52.03;28.40;;;-6.50;99.90;;;;;;4968759;28;20300;-70
2024/01/12 02:43:52;;;;;;;58.08;28.17;;;-6.40;99.90;;;;;;4968120;28;20309;-70
2024/01/12 02:46:20;;;;;;;49.17;25.60;;;-6.30;99.90;;;;;;4969746;28;20289;-69
2024/01/12 02:48:48;;;;;;;47.80;23.73;;;-6.30;99.90;;;;;;4974855;28;20214;-69
2024/01/12 02:51:16;;;;;;;50.72;25.73;;;-6.30;99.90;;;;;;4978707;28;20199;-69
2024/01/12 02:53:44;;;;;;;45.70;22.55;;;-6.20;99.90;;;;;;4964908;28;20238;-68
2024/01/12 02:56:13;;;;;;;54.65;25.20;;;-6.20;99.90;;;;;;4979614;28;20705;-70
2024/01/12 02:58:41;;;;;;;52.08;26.00;;;-6.30;99.90;;;;;;4979806;28;20247;-69
2024/01/12 03:01:09;;;;;;;45.47;23.90;;;-6.40;99.90;;;;;;4970798;28;20215;-70
2024/01/12 03:03:37;;;;;;;51.63;24.95;;;-6.50;99.90;;;;;;4975327;28;20227;-70
2024/01/12 03:06:07;;;;;;;51.40;25.27;;;-6.60;99.90;;;;;;4975462;28;20593;-69
2024/01/12 03:08:35;;;;;;;44.63;24.00;;;-6.70;99.90;;;;;;4973601;28;20237;-69
2024/01/12 03:11:03;;;;;;;42.92;23.95;;;-6.70;99.90;;;;;;4974800;28;20888;-69
2024/01/12 03:13:35;;;;;;;57.05;28.98;;;-6.80;99.90;;;;;;4975254;28;20231;-69
2024/01/12 03:16:03;;;;;;;57.08;27.65;;;-6.70;99.90;;;;;;4975220;28;20614;-69
2024/01/12 03:18:32;;;;;;;53.85;26.85;;;-6.60;99.90;;;;;;4967032;28;20618;-69
2024/01/12 03:21:00;;;;;;;56.47;30.27;;;-6.60;99.90;;;;;;4969539;28;20211;-69
2024/01/12 03:23:28;;;;;;;49.95;26.60;;;-6.50;99.90;;;;;;4972225;28;20278;-69
2024/01/12 03:25:59;;;;;;;57.33;28.45;;;-6.60;99.90;;;;;;4960035;28;20614;-69
2024/01/12 03:28:27;;;;;;;47.03;26.63;;;-6.50;99.90;;;;;;4968712;28;20271;-69
2024/01/12 03:30:56;;;;;;;66.43;30.08;;;-6.50;99.90;;;;;;4992810;28;20217;-69
2024/01/12 03:33:24;;;;;;;56.03;27.88;;;-6.60;99.90;;;;;;4965655;28;20228;-69
2024/01/12 03:35:52;;;;;;;47.63;25.50;;;-6.70;99.90;;;;;;4975149;28;20211;-69
2024/01/12 03:38:20;;;;;;;66.80;27.67;;;-6.70;99.90;;;;;;4974825;28;20299;-70
2024/01/12 03:40:48;;;;;;;49.45;26.40;;;-6.70;99.90;;;;;;4974981;28;20208;-69
2024/01/12 03:43:16;;;;;;;49.80;28.63;;;-6.60;99.90;;;;;;4977083;28;20262;-69
2024/01/12 03:45:44;;;;;;;55.13;27.50;;;-6.60;99.90;;;;;;4973013;28;20214;-69
2024/01/12 03:48:14;;;;;;;56.45;27.90;;;-6.60;99.90;;;;;;4965837;28;20682;-69
2024/01/12 03:50:42;;;;;;;58.33;27.60;;;-6.60;99.90;;;;;;4970550;28;20262;-69
2024/01/12 03:53:10;;;;;;;57.72;27.45;;;-6.50;99.90;;;;;;4965409;28;20254;-68
2024/01/12 03:55:38;;;;;;;49.75;26.88;;;-6.50;99.90;;;;;;4970908;28;20201;-69
2024/01/12 03:58:06;;;;;;;54.75;29.42;;;-6.60;99.90;;;;;;4966750;28;20212;-69
2024/01/12 04:00:34;;;;;;;51.88;28.40;;;-6.70;99.90;;;;;;4964078;28;20218;-70
2024/01/12 04:03:02;;;;;;;59.40;29.58;;;-6.90;99.90;;;;;;4966737;28;20812;-69
2024/01/12 04:05:32;;;;;;;55.35;29.73;;;-6.90;99.90;;;;;;4971283;28;20632;-70
2024/01/12 04:08:00;;;;;;;50.83;28.23;;;-7.00;99.90;;;;;;4971664;28;20212;-70
2024/01/12 04:10:28;;;;;;;54.35;28.52;;;-7.00;99.90;;;;;;4976162;28;20196;-69
2024/01/12 04:12:56;;;;;;;53.88;27.88;;;-6.90;99.90;;;;;;4963123;28;20232;-69
2024/01/12 04:15:24;;;;;;;50.17;26.13;;;-7.00;99.90;;;;;;4965742;28;20243;-70
2024/01/12 04:17:52;;;;;;;58.38;29.73;;;-7.00;99.90;;;;;;4971444;28;20389;-69
2024/01/12 04:20:20;;;;;;;47.17;24.45;;;-7.00;99.90;;;;;;4971675;28;20247;-69
2024/01/12 04:22:49;;;;;;;62.53;28.05;;;-6.90;99.90;;;;;;4971587;28;20200;-69
2024/01/12 04:25:17;;;;;;;51.05;26.92;;;-7.00;99.90;;;;;;4968084;28;20238;-69
2024/01/12 04:27:45;;;;;;;42.80;24.33;;;-7.00;99.90;;;;;;4963471;28;21024;-69
2024/01/12 04:30:14;;;;;;;63.38;30.10;;;-7.00;99.90;;;;;;4968351;28;20204;-69
2024/01/12 04:32:42;;;;;;;51.78;27.40;;;-7.00;99.90;;;;;;4989658;28;20672;-69
2024/01/12 04:35:11;;;;;;;54.83;28.70;;;-7.00;99.90;;;;;;4976040;28;20224;-69
2024/01/12 04:37:39;;;;;;;59.38;27.15;;;-7.10;99.90;;;;;;4964658;28;20205;-69
2024/01/12 04:40:10;;;;;;;54.60;25.80;;;-6.90;99.90;;;;;;4962004;28;20316;-69
2024/01/12 04:42:38;;;;;;;52.63;27.13;;;-6.90;99.90;;;;;;4962818;28;20264;-69
2024/01/12 04:45:06;;;;;;;52.75;26.70;;;-7.00;99.90;;;;;;4965876;28;20335;-69
2024/01/12 04:47:34;;;;;;;61.25;28.85;;;-7.00;99.90;;;;;;4964603;28;20251;-69
2024/01/12 04:50:03;;;;;;;54.05;27.77;;;-7.00;99.90;;;;;;4967067;28;20598;-69
2024/01/12 04:52:31;;;;;;;49.45;30.02;;;-7.00;99.90;;;;;;4970888;28;20235;-69
2024/01/12 04:54:59;;;;;;;53.58;27.85;;;-7.00;99.90;;;;;;4968401;28;20343;-69
2024/01/12 04:57:28;;;;;;;54.80;27.55;;;-7.10;99.90;;;;;;4968601;28;20235;-69
2024/01/12 04:59:56;;;;;;;52.10;28.42;;;-7.00;99.90;;;;;;4970188;28;20211;-69
2024/01/12 05:02:24;;;;;;;52.55;27.02;;;-6.70;99.90;;;;;;4970366;28;20231;-69
2024/01/12 05:04:52;;;;;;;50.60;27.65;;;-6.80;99.90;;;;;;4986147;28;20352;-69
2024/01/12 05:07:20;;;;;;;47.92;25.73;;;-6.80;99.90;;;;;;4970927;28;20295;-68
2024/01/12 05:09:48;;;;;;;57.47;27.25;;;-6.90;99.90;;;;;;4970695;28;20834;-68
2024/01/12 05:12:16;;;;;;;51.95;27.38;;;-6.80;99.90;;;;;;4968339;28;20794;-69
2024/01/12 05:14:45;;;;;;;52.72;26.80;;;-6.80;99.90;;;;;;4970689;28;20231;-69
2024/01/12 05:17:15;;;;;;;64.05;29.65;;;-6.70;99.90;;;;;;4970097;28;20223;-69
2024/01/12 05:19:42;;;;;;;61.47;30.10;;;-6.60;99.90;;;;;;4970158;28;20592;-69
2024/01/12 05:22:10;;;;;;;47.33;27.27;;;-6.70;99.90;;;;;;4966159;28;20298;-70
2024/01/12 05:24:38;;;;;;;59.75;28.83;;;-6.60;99.90;;;;;;4970039;28;20220;-69
2024/01/12 05:27:07;;;;;;;54.22;27.55;;;-6.60;99.90;;;;;;4963738;28;20263;-69
2024/01/12 05:29:35;;;;;;;49.90;26.52;;;-6.60;99.90;;;;;;4984086;28;20200;-68
2024/01/12 05:32:05;;;;;;;46.42;24.40;;;-6.60;99.90;;;;;;4973126;28;20291;-69
2024/01/12 05:34:33;;;;;;;53.42;26.23;;;-6.50;99.90;;;;;;4967868;28;20235;-69
2024/01/12 05:37:01;;;;;;;49.05;22.95;;;-6.60;99.90;;;;;;4967685;28;20238;-69
2024/01/12 05:39:29;;;;;;;47.47;24.75;;;-6.70;99.90;;;;;;4966344;28;20200;-67
2024/01/12 05:41:57;;;;;;;60.50;27.77;;;-6.90;99.90;;;;;;4968017;28;20298;-69
2024/01/12 05:44:25;;;;;;;53.55;25.55;;;-7.00;99.90;;;;;;4965815;28;20228;-68
2024/01/12 05:46:53;;;;;;;47.97;23.90;;;-7.00;99.90;;;;;;4970118;28;20632;-68
2024/01/12 05:49:22;;;;;;;50.05;26.80;;;-7.00;99.90;;;;;;4969611;28;20988;-69
2024/01/12 05:51:51;;;;;;;48.65;25.30;;;-7.20;99.90;;;;;;4963843;28;20207;-68
2024/01/12 05:54:19;;;;;;;51.25;25.70;;;-7.10;99.90;;;;;;4966392;28;20693;-68
2024/01/12 05:56:47;;;;;;;52.30;26.20;;;-7.00;99.90;;;;;;4969138;28;20226;-68
2024/01/12 05:59:15;;;;;;;60.85;28.45;;;-7.10;99.90;;;;;;4967619;28;20295;-70
2024/01/12 06:01:43;;;;;;;56.42;29.08;;;-7.00;99.90;;;;;;4963856;28;20779;-69
2024/01/12 06:04:11;;;;;;;60.22;27.42;;;-7.10;99.90;;;;;;4969107;28;20267;-69
2024/01/12 06:06:42;;;;;;;52.78;24.67;;;-7.20;99.90;;;;;;4967331;28;20212;-70
2024/01/12 06:09:10;;;;;;;64.30;27.30;;;-7.20;99.90;;;;;;4957692;28;20205;-70
2024/01/12 06:11:42;;;;;;;50.20;24.90;;;-7.20;99.90;;;;;;4951844;28;20267;-69
2024/01/12 06:14:10;;;;;;;49.97;28.60;;;-7.20;99.90;;;;;;4967241;28;20228;-69
2024/01/12 06:16:38;;;;;;;57.05;29.65;;;-7.30;99.90;;;;;;4968191;28;20204;-69
2024/01/12 06:19:06;;;;;;;50.15;24.27;;;-7.20;99.90;;;;;;4956424;28;20217;-69
2024/01/12 06:21:34;;;;;;;53.17;27.70;;;-7.20;99.90;;;;;;4950607;28;20228;-70
2024/01/12 06:24:06;;;;;;;60.05;26.60;;;-7.10;99.90;;;;;;4974292;28;20219;-69
2024/01/12 06:26:34;;;;;;;63.63;27.58;;;-7.10;99.90;;;;;;4977752;28;20580;-69
2024/01/12 06:29:02;;;;;;;48.17;27.80;;;-7.10;99.90;;;;;;4972045;28;20214;-70
2024/01/12 06:31:31;;;;;;;51.78;25.55;;;-7.10;99.90;;;;;;4962872;28;20275;-69
2024/01/12 06:33:59;;;;;;;57.47;27.92;;;-7.20;99.90;;;;;;4981977;28;20573;-69
2024/01/12 06:36:28;;;;;;;51.85;26.00;;;-7.20;99.90;;;;;;4973757;28;20298;-70
2024/01/12 06:38:57;;;;;;;56.85;27.08;;;-7.10;99.90;;;;;;4966221;28;20208;-69
2024/01/12 06:41:26;;;;;;;48.95;26.77;;;-7.20;99.90;;;;;;4967621;28;20725;-69
2024/01/12 06:43:54;;;;;;;47.45;24.63;;;-7.10;99.90;;;;;;4968797;28;20243;-69
2024/01/12 06:46:22;;;;;;;52.95;28.67;;;-7.10;99.90;;;;;;4969147;28;20204;-70
2024/01/12 06:48:50;;;;;;;57.97;28.40;;;-7.10;99.90;;;;;;4968542;28;20728;-69
2024/01/12 06:51:23;;;;;;;52.65;26.80;;;-7.20;99.90;;;;;;4969080;28;20587;-69
2024/01/12 06:53:51;;;;;;;45.22;25.75;;;-7.20;99.90;;;;;;4966860;28;20238;-70
2024/01/12 06:56:22;;;;;;;60.05;29.40;;;-7.10;99.90;;;;;;4980876;28;20212;-70
2024/01/12 06:58:52;;;;;;;48.00;23.85;;;-7.00;99.90;;;;;;4971707;28;20995;-70
2024/01/12 07:01:20;;;;;;;54.17;26.45;;;-7.10;99.90;;;;;;4968916;28;20696;-70
2024/01/12 07:03:51;;;;;;;53.38;25.50;;;-7.20;99.90;;;;;;4969076;28;20327;-70
2024/01/12 07:06:19;;;;;;;54.72;27.73;;;-7.30;99.90;;;;;;4969303;28;20299;-70
2024/01/12 07:08:47;;;;;;;49.53;25.10;;;-7.20;99.90;;;;;;4966959;28;20298;-70
2024/01/12 07:11:15;;;;;;;50.13;25.83;;;-7.20;99.90;;;;;;4985346;28;20945;-69
2024/01/12 07:13:44;;;;;;;49.85;24.40;;;-7.10;99.90;;;;;;4985319;28;20223;-69
2024/01/12 07:16:13;;;;;;;47.92;24.83;;;-7.10;99.90;;;;;;4977782;28;20628;-69
2024/01/12 07:18:43;;;;;;;51.80;26.20;;;-7.10;99.90;;;;;;4979010;28;20725;-69
2024/01/12 07:21:11;;;;;;;56.10;27.85;;;-7.20;99.90;;;;;;4980271;28;20206;-70
2024/01/12 07:23:39;;;;;;;48.80;24.17;;;-7.30;99.90;;;;;;4987366;28;20223;-69
2024/01/12 07:26:08;;;;;;;49.00;26.63;;;-7.30;99.90;;;;;;4980302;28;20217;-70
2024/01/12 07:28:35;;;;;;;47.95;24.52;;;-7.30;99.90;;;;;;4969059;28;20207;-69
2024/01/12 07:31:04;;;;;;;52.78;27.08;;;-7.30;99.90;;;;;;4969015;28;20287;-69
2024/01/12 07:33:33;;;;;;;48.28;25.50;;;-7.30;99.90;;;;;;4973276;28;20702;-69
2024/01/12 07:36:02;;;;;;;48.20;26.38;;;-7.10;99.90;;;;;;4978249;28;20223;-69
2024/01/12 07:38:30;;;;;;;54.13;26.40;;;-7.00;99.90;;;;;;4980631;28;20270;-69
2024/01/12 07:40:58;;;;;;;55.72;25.98;;;-7.00;99.90;;;;;;4983789;28;20299;-69
2024/01/12 07:43:27;;;;;;;50.33;26.48;;;-7.10;99.90;;;;;;4974755;28;20289;-68
2024/01/12 07:45:55;;;;;;;52.65;26.58;;;-7.00;99.90;;;;;;4976523;28;20271;-69
2024/01/12 07:48:23;;;;;;;55.85;26.83;;;-7.00;99.90;;;;;;4973639;28;20199;-69
2024/01/12 07:50:53;;;;;;;56.05;26.52;;;-7.00;99.90;;;;;;4971279;28;20204;-69
2024/01/12 07:53:21;;;;;;;61.17;27.52;;;-7.00;99.90;;;;;;4975666;28;20267;-68
2024/01/12 07:55:52;;;;;;;64.70;28.13;;;-7.00;99.90;;;;;;4981906;28;20739;-68
2024/01/12 07:58:20;;;;;;;54.05;28.40;;;-6.90;99.90;;;;;;4977670;28;20210;-68
2024/01/12 08:00:48;;;;;;;54.47;26.60;;;-6.80;99.90;;;;;;4980172;28;20192;-68
2024/01/12 08:03:16;;;;;;;60.90;27.92;;;-6.80;99.90;;;;;;4964175;28;20735;-68
2024/01/12 08:05:45;;;;;;;58.72;28.52;;;-6.70;99.90;;;;;;4974065;28;20208;-69
2024/01/12 08:08:16;;;;;;;50.90;26.63;;;-6.70;99.90;;;;;;4970902;28;20210;-69
2024/01/12 08:10:46;;;;;;;53.88;28.50;;;-6.70;99.90;;;;;;4970608;28;20221;-68
2024/01/12 08:13:14;;;;;;;59.65;29.20;;;-6.70;99.90;;;;;;4972126;28;20212;-68
2024/01/12 08:15:45;;;;;;;58.15;28.30;;;-6.60;99.90;;;;;;4969356;28;20234;-69
2024/01/12 08:18:13;;;;;;;62.80;30.48;;;-6.50;99.90;;;;;;4969070;28;20232;-68
2024/01/12 08:20:41;;;;;;;57.63;31.55;;;-6.50;99.90;;;;;;4970732;28;20654;-68
2024/01/12 08:23:09;;;;;;;50.25;28.95;;;-6.40;99.90;;;;;;4971516;28;20220;-68
2024/01/12 08:25:38;;;;;;;57.78;31.67;;;-6.40;99.90;;;;;;4971633;28;20204;-68
2024/01/12 08:28:07;;;;;;;58.20;28.88;;;-6.30;99.90;;;;;;4970281;28;20215;-69
2024/01/12 08:30:34;;;;;;;63.25;29.88;;;-6.20;99.90;;;;;;4968780;28;20682;-69
2024/01/12 08:33:03;;;;;;;63.10;31.27;;;-6.20;99.90;;;;;;4968334;28;20205;-68
2024/01/12 08:35:31;;;;;;;61.45;32.70;;;-6.10;99.90;;;;;;4967663;28;20259;-68
2024/01/12 08:37:59;;;;;;;59.38;31.17;;;-5.90;99.90;;;;;;4972190;28;20231;-69
2024/01/12 08:40:27;;;;;;;55.08;31.88;;;-5.90;99.90;;;;;;4971441;28;20228;-68
2024/01/12 08:42:57;;;;;;;58.70;31.58;;;-5.70;99.90;;;;;;4968929;28;20208;-68
2024/01/12 08:45:25;;;;;;;63.40;28.02;;;-5.60;99.90;;;;;;4968510;28;20306;-69
2024/01/12 08:47:53;;;;;;;61.13;30.05;;;-5.60;99.90;;;;;;4964684;28;20337;-69
2024/01/12 08:50:21;;;;;;;61.15;32.83;;;-5.50;99.90;;;;;;4964928;28;20216;-69
2024/01/12 08:52:49;;;;;;;57.88;28.38;;;-5.40;99.90;;;;;;4971187;28;20321;-69
2024/01/12 08:55:17;;;;;;;57.17;32.83;;;-5.50;99.90;;;;;;4967282;28;20780;-68
2024/01/12 08:57:45;;;;;;;58.00;33.58;;;-5.40;99.90;;;;;;4958427;28;20205;-69
2024/01/12 09:00:16;;;;;;;54.17;30.83;;;-5.30;99.90;;;;;;4962850;28;20599;-69
2024/01/12 09:02:44;;;;;;;53.05;30.90;;;-5.00;99.90;;;;;;4964169;28;20207;-68
2024/01/12 09:05:13;;;;;;;55.47;31.33;;;-4.80;99.90;;;;;;4965727;28;20219;-69
2024/01/12 09:07:42;;;;;;;56.42;28.60;;;-4.60;99.90;;;;;;4964310;28;20243;-70
2024/01/12 09:10:11;;;;;;;56.78;30.60;;;-4.50;99.90;;;;;;4968566;28;20205;-70
2024/01/12 09:12:38;;;;;;;55.72;31.92;;;-4.50;99.90;;;;;;4968902;28;20213;-70
2024/01/12 09:15:08;;;;;;;56.13;30.58;;;-4.40;99.90;;;;;;4970091;28;20227;-70
2024/01/12 09:17:39;;;;;;;54.28;30.85;;;-4.30;99.90;;;;;;4968454;28;20208;-69
2024/01/12 09:20:09;;;;;;;62.47;31.70;;;-4.30;99.90;;;;;;4967252;28;20296;-70
2024/01/12 09:22:37;;;;;;;60.72;33.60;;;-4.00;99.90;;;;;;4968235;28;20258;-70
2024/01/12 09:25:05;;;;;;;60.58;33.00;;;-3.90;99.90;;;;;;4970339;28;20231;-71
2024/01/12 09:27:33;;;;;;;61.67;32.75;;;-3.80;99.90;;;;;;4970423;28;20308;-70
2024/01/12 09:30:01;;;;;;;54.67;30.73;;;-3.80;99.90;;;;;;4965285;28;20247;-71
2024/01/12 09:32:30;;;;;;;58.85;31.40;;;-3.80;99.90;;;;;;4968245;28;20596;-70
2024/01/12 09:35:02;;;;;;;55.78;29.95;;;-3.70;99.90;;;;;;4969152;28;20239;-71
2024/01/12 09:37:30;;;;;;;53.40;31.92;;;-3.50;99.90;;;;;;4969899;28;20250;-71
2024/01/12 09:39:58;;;;;;;59.63;31.52;;;-3.40;99.90;;;;;;4969601;28;20255;-71
2024/01/12 09:42:33;;;;;;;50.33;29.60;;;-3.20;99.90;;;;;;4962841;28;20264;-71
2024/01/12 09:45:02;;;;;;;59.55;32.85;;;-3.20;99.90;;;;;;4958709;28;20708;-70
2024/01/12 09:47:36;;;;;;;57.60;32.15;;;-3.20;99.90;;;;;;4962481;28;20199;-70
2024/01/12 09:50:09;;;;;;;59.40;31.92;;;-3.20;99.90;;;;;;4969548;28;20302;-70
2024/01/12 09:52:37;;;;;;;59.80;33.92;;;-3.30;99.90;;;;;;4969613;28;20219;-70
2024/01/12 09:55:07;;;;;;;55.88;32.58;;;-3.30;99.90;;;;;;4970034;28;20230;-70
2024/01/12 09:57:35;;;;;;;61.63;30.80;;;-3.30;99.90;;;;;;4964136;28;20294;-70
2024/01/12 10:00:05;;;;;;;52.35;31.05;;;-3.20;99.90;;;;;;4968017;28;20717;-71
2024/01/12 10:02:34;;;;;;;54.50;29.35;;;-3.10;99.90;;;;;;4967114;28;20632;-70
2024/01/12 10:05:02;;;;;;;60.50;30.48;;;-3.00;99.90;;;;;;4969699;28;20240;-70
2024/01/12 10:07:31;;;;;;;48.60;28.40;;;-2.90;99.90;;;;;;4962143;28;20591;-69
2024/01/12 10:10:00;;;;;;;59.45;30.17;;;-2.80;99.90;;;;;;4964012;28;20261;-70
2024/01/12 10:12:28;;;;;;;50.67;29.83;;;-2.90;99.90;;;;;;4969552;28;20216;-70
2024/01/12 10:15:02;;;;;;;55.20;29.95;;;-2.90;99.90;;;;;;4972355;28;20226;-71
2024/01/12 10:17:31;;;;;;;56.20;29.88;;;-2.90;99.90;;;;;;4972632;28;20286;-71
2024/01/12 10:20:00;;;;;;;55.83;29.60;;;-2.90;99.90;;;;;;4969640;28;20216;-70
2024/01/12 10:22:28;;;;;;;61.58;32.03;;;-2.90;99.90;;;;;;4968637;28;20253;-71
2024/01/12 10:25:02;;;;;;;59.90;31.10;;;-2.70;99.90;;;;;;4969845;28;20241;-71
2024/01/12 10:27:31;;;;;;;55.67;30.75;;;-2.40;99.90;;;;;;4965104;28;20239;-71
2024/01/12 10:29:59;;;;;;;51.03;28.77;;;-2.00;99.90;;;;;;4965107;28;20291;-71
2024/01/12 10:32:27;;;;;;;50.78;28.80;;;-1.50;99.90;;;;;;4969485;28;20215;-71
2024/01/12 10:34:56;;;;;;;50.53;27.50;;;-1.00;99.90;;;;;;4963424;28;20778;-70
2024/01/12 10:37:24;;;;;;;53.65;27.92;;;-0.20;99.90;;;;;;4965379;28;20231;-71
2024/01/12 10:39:53;;;;;;;52.90;26.52;;;0.00;99.90;;;;;;4969048;28;20211;-71
2024/01/12 10:42:24;;;;;;;50.85;24.73;;;0.10;99.90;;;;;;4968190;28;20675;-70
2024/01/12 10:44:54;;;;;;;47.20;25.15;;;0.20;99.90;;;;;;4963273;28;20645;-71
2024/01/12 10:47:23;;;;;;;43.70;24.20;;;0.30;99.90;;;;;;4967436;28;20254;-70
2024/01/12 10:49:55;;;;;;;49.63;27.00;;;0.30;99.90;;;;;;4966203;28;20204;-71
2024/01/12 10:52:32;;;;;;;40.60;21.52;;;0.40;99.90;;;;;;4969530;28;20673;-71
2024/01/12 10:55:04;;;;;;;45.83;23.42;;;0.10;99.90;;;;;;4962170;28;20310;-70
2024/01/12 10:57:34;;;;;;;42.78;23.90;;;-0.20;99.90;;;;;;4970942;28;20223;-70
2024/01/12 11:00:02;;;;;;;42.70;23.02;;;-0.90;99.90;;;;;;4969894;28;20633;-70
2024/01/12 11:02:32;;;;;;;44.00;24.75;;;-1.30;99.90;;;;;;4971675;28;20258;-69
2024/01/12 11:05:01;;;;;;;42.92;23.80;;;-1.50;99.90;;;;;;4986016;28;20243;-70
2024/01/12 11:07:30;;;;;;;40.03;21.73;;;-1.60;99.90;;;;;;4985092;28;20195;-71
2024/01/12 11:10:00;;;;;;;46.42;25.15;;;-1.80;99.90;;;;;;4984757;28;20204;-72
2024/01/12 11:12:32;;;;;;;44.20;23.50;;;-2.00;99.90;;;;;;4981475;28;20238;-71
2024/01/12 11:15:02;;;;;;;42.65;22.65;;;-2.10;99.90;;;;;;4985335;28;20297;-71
2024/01/12 11:17:31;;;;;;;46.28;23.50;;;-2.00;99.90;;;;;;4979595;28;20462;-71
2024/01/12 11:20:09;;;;;;;40.72;20.63;;;-1.90;99.90;;;;;;4981367;28;20212;-70
2024/01/12 11:22:38;;;;;;;33.15;18.90;;;-1.90;99.90;;;;;;4977508;28;20196;-70
2024/01/12 11:25:08;;;;;;;42.22;21.23;;;-1.80;99.90;;;;;;4972822;28;20294;-71
2024/01/12 11:27:39;;;;;;;39.80;21.77;;;-1.90;99.90;;;;;;4977252;28;20741;-70
2024/01/12 11:30:11;;;;;;;47.50;25.27;;;-1.90;99.90;;;;;;4981654;28;20286;-70
2024/01/12 11:32:44;;;;;;;46.10;22.33;;;-1.90;99.90;;;;;;4978717;28;20669;-70
2024/01/12 11:35:14;;;;;;;39.70;20.33;;;-1.80;99.90;;;;;;4965272;28;20227;-69
2024/01/12 11:37:43;;;;;;;41.08;22.33;;;-1.80;99.90;;;;;;4968230;28;20234;-69
2024/01/12 11:40:13;;;;;;;50.42;24.50;;;-1.70;99.90;;;;;;4971396;28;20311;-71
2024/01/12 11:42:43;;;;;;;44.88;25.15;;;-1.70;99.90;;;;;;4977566;28;20263;-71
2024/01/12 11:45:14;;;;;;;48.15;24.50;;;-1.60;99.90;;;;;;4968560;28;20272;-71
2024/01/12 11:47:43;;;;;;;42.03;21.80;;;-1.60;99.90;;;;;;4975212;28;20200;-67
2024/01/12 11:50:14;;;;;;;48.60;24.23;;;-1.50;99.90;;;;;;4969509;28;20218;-68
2024/01/12 11:52:42;;;;;;;45.65;23.60;;;-1.40;99.90;;;;;;4971525;28;20216;-68
2024/01/12 11:55:11;;;;;;;43.67;23.70;;;-1.50;99.90;;;;;;4969831;28;20226;-70
2024/01/12 11:57:39;;;;;;;42.20;23.02;;;-1.50;99.90;;;;;;4975612;28;20215;-69
2024/01/12 12:00:09;;;;;;;45.22;24.33;;;-1.50;99.90;;;;;;4975843;28;20203;-70
2024/01/12 12:02:39;;;;;;;40.40;21.98;;;-1.60;99.90;;;;;;4971431;28;20204;-70
2024/01/12 12:05:09;;;;;;;40.95;22.17;;;-1.60;99.90;;;;;;4981085;28;20306;-70
2024/01/12 12:07:37;;;;;;;42.55;23.50;;;-1.50;99.90;;;;;;4977807;28;20283;-70
2024/01/12 12:10:06;;;;;;;42.05;21.80;;;-1.50;99.90;;;;;;4970109;28;20235;-70
2024/01/12 12:12:34;;;;;;;41.28;23.00;;;-1.40;99.90;;;;;;4971244;28;20215;-69
2024/01/12 12:15:05;;;;;;;37.95;20.60;;;-1.40;99.90;;;;;;4977943;28;20281;-70
2024/01/12 12:17:37;;;;;;;35.90;21.73;;;-1.30;99.90;;;;;;4969780;28;20227;-69
2024/01/12 12:20:11;;;;;;;48.72;22.98;;;-1.20;99.90;;;;;;4983890;28;20215;-70
2024/01/12 12:22:39;;;;;;;40.63;22.55;;;-1.10;99.90;;;;;;4972925;28;20291;-70
2024/01/12 12:25:10;;;;;;;44.90;23.25;;;-0.90;99.90;;;;;;4959013;28;20228;-69
2024/01/12 12:27:39;;;;;;;43.13;23.80;;;-0.80;99.90;;;;;;4966764;28;20196;-70
2024/01/12 12:30:08;;;;;;;42.38;21.70;;;-0.60;99.90;;;;;;4972827;28;20246;-75
2024/01/12 12:32:41;;;;;;;45.55;22.30;;;-0.60;99.90;;;;;;4974438;28;20211;-71
2024/01/12 12:35:14;;;;;;;38.83;20.63;;;-0.60;99.90;;;;;;4976255;28;20228;-73